sensor_id;sensor_type;location;lat;lon;timestamp;pressure;altitude;pressure_sealevel;temperature;humidity
30935;BME280;51033;42.648;23.292;2023-07-24T00:01:01;94138.31;;;20.19;48.63
30935;BME280;51033;42.648;23.292;2023-07-24T00:03:29;94130.09;;;20.12;48.17
30935;BME280;51033;42.648;23.292;2023-07-24T00:05:58;94141.72;;;20.16;48.26
30935;BME280;51033;42.648;23.292;2023-07-24T00:08:24;94146.41;;;20.19;48.69
30935;BME280;51033;42.648;23.292;2023-07-24T00:10:49;94137.47;;;20.15;48.27
30935;BME280;51033;42.648;23.292;2023-07-24T00:13:17;94137.25;;;20.24;48.28
30935;BME280;51033;42.648;23.292;2023-07-24T00:15:43;94130.88;;;20.12;47.99
30935;BME280;51033;42.648;23.292;2023-07-24T00:18:08;94140.66;;;20.21;48.27
30935;BME280;51033;42.648;23.292;2023-07-24T00:20:34;94139.84;;;20.16;48.25
30935;BME280;51033;42.648;23.292;2023-07-24T00:22:59;94113.75;;;20.01;48.29
30935;BME280;51033;42.648;23.292;2023-07-24T00:25:25;94128.53;;;20.11;48.34
30935;BME280;51033;42.648;23.292;2023-07-24T00:27:50;94127.72;;;20.07;48.60
30935;BME280;51033;42.648;23.292;2023-07-24T00:30:15;94134.22;;;20.02;48.53
30935;BME280;51033;42.648;23.292;2023-07-24T00:32:41;94124.84;;;19.93;48.54
30935;BME280;51033;42.648;23.292;2023-07-24T00:35:07;94119.75;;;19.88;48.21
30935;BME280;51033;42.648;23.292;2023-07-24T00:37:32;94134.88;;;19.96;48.00
30935;BME280;51033;42.648;23.292;2023-07-24T00:39:57;94123.59;;;19.87;48.26
30935;BME280;51033;42.648;23.292;2023-07-24T00:42:23;94124.38;;;19.87;47.75
30935;BME280;51033;42.648;23.292;2023-07-24T00:44:48;94130.59;;;19.91;47.58
30935;BME280;51033;42.648;23.292;2023-07-24T00:47:14;94122.00;;;19.86;47.28
30935;BME280;51033;42.648;23.292;2023-07-24T00:49:39;94130.22;;;19.93;47.81
30935;BME280;51033;42.648;23.292;2023-07-24T00:52:06;94122.72;;;19.79;47.50
30935;BME280;51033;42.648;23.292;2023-07-24T00:54:33;94131.38;;;19.92;47.68
30935;BME280;51033;42.648;23.292;2023-07-24T00:56:59;94128.16;;;19.83;48.53
30935;BME280;51033;42.648;23.292;2023-07-24T00:59:26;94117.31;;;19.79;48.27
30935;BME280;51033;42.648;23.292;2023-07-24T01:01:52;94114.19;;;19.77;47.84
30935;BME280;51033;42.648;23.292;2023-07-24T01:04:17;94122.72;;;19.79;48.28
30935;BME280;51033;42.648;23.292;2023-07-24T01:06:43;94088.34;;;19.50;47.78
30935;BME280;51033;42.648;23.292;2023-07-24T01:09:09;94104.31;;;19.62;47.31
30935;BME280;51033;42.648;23.292;2023-07-24T01:11:47;94085.16;;;19.44;47.04
30935;BME280;51033;42.648;23.292;2023-07-24T01:16:42;94095.50;;;19.42;46.49
30935;BME280;51033;42.648;23.292;2023-07-24T01:19:35;94050.66;;;19.08;46.69
30935;BME280;51033;42.648;23.292;2023-07-24T01:22:10;94112.19;;;19.48;46.82
30935;BME280;51033;42.648;23.292;2023-07-24T01:24:45;94116.81;;;19.47;46.31
30935;BME280;51033;42.648;23.292;2023-07-24T01:27:27;94108.31;;;19.45;46.39
30935;BME280;51033;42.648;23.292;2023-07-24T01:29:53;94113.59;;;19.42;46.38
30935;BME280;51033;42.648;23.292;2023-07-24T01:32:19;94103.50;;;19.35;45.49
30935;BME280;51033;42.648;23.292;2023-07-24T01:34:45;94091.47;;;19.29;45.19
30935;BME280;51033;42.648;23.292;2023-07-24T01:37:12;94093.50;;;19.36;45.56
30935;BME280;51033;42.648;23.292;2023-07-24T01:39:40;94098.50;;;19.37;45.38
30935;BME280;51033;42.648;23.292;2023-07-24T01:42:05;94110.88;;;19.38;45.44
30935;BME280;51033;42.648;23.292;2023-07-24T01:44:31;94115.59;;;19.22;46.06
30935;BME280;51033;42.648;23.292;2023-07-24T01:46:57;94127.69;;;19.31;47.03
30935;BME280;51033;42.648;23.292;2023-07-24T01:49:22;94117.91;;;19.20;47.09
30935;BME280;51033;42.648;23.292;2023-07-24T01:51:47;94121.53;;;19.08;47.17
30935;BME280;51033;42.648;23.292;2023-07-24T01:54:13;94127.06;;;19.15;47.91
30935;BME280;51033;42.648;23.292;2023-07-24T01:56:39;94132.44;;;19.15;48.10
30935;BME280;51033;42.648;23.292;2023-07-24T01:59:05;94131.66;;;19.15;48.41
30935;BME280;51033;42.648;23.292;2023-07-24T02:01:30;94132.38;;;19.12;47.73
30935;BME280;51033;42.648;23.292;2023-07-24T02:03:55;94127.75;;;19.12;47.37
30935;BME280;51033;42.648;23.292;2023-07-24T02:06:21;94123.44;;;19.08;47.24
30935;BME280;51033;42.648;23.292;2023-07-24T02:08:46;94128.44;;;19.06;47.64
30935;BME280;51033;42.648;23.292;2023-07-24T02:11:17;94119.97;;;19.07;47.52
30935;BME280;51033;42.648;23.292;2023-07-24T02:13:44;94119.97;;;19.07;47.38
30935;BME280;51033;42.648;23.292;2023-07-24T02:16:09;94109.88;;;19.01;47.20
30935;BME280;51033;42.648;23.292;2023-07-24T02:18:37;94114.53;;;19.04;47.38
30935;BME280;51033;42.648;23.292;2023-07-24T02:21:03;94107.72;;;19.10;47.82
30935;BME280;51033;42.648;23.292;2023-07-24T02:23:28;94101.47;;;19.06;48.02
30935;BME280;51033;42.648;23.292;2023-07-24T02:25:53;94116.19;;;19.12;48.17
30935;BME280;51033;42.648;23.292;2023-07-24T02:28:19;94109.13;;;19.04;48.31
30935;BME280;51033;42.648;23.292;2023-07-24T02:30:46;94114.47;;;19.00;48.31
30935;BME280;51033;42.648;23.292;2023-07-24T02:33:12;94098.53;;;18.92;48.77
30935;BME280;51033;42.648;23.292;2023-07-24T02:35:42;94112.25;;;19.06;47.79
30935;BME280;51033;42.648;23.292;2023-07-24T02:38:08;94100.66;;;19.02;48.17
30935;BME280;51033;42.648;23.292;2023-07-24T02:40:34;94097.09;;;18.98;47.85
30935;BME280;51033;42.648;23.292;2023-07-24T02:43:00;94098.94;;;18.94;47.99
30935;BME280;51033;42.648;23.292;2023-07-24T02:45:26;94102.31;;;18.87;48.44
30935;BME280;51033;42.648;23.292;2023-07-24T02:47:51;94107.31;;;18.88;48.81
30935;BME280;51033;42.648;23.292;2023-07-24T02:50:17;94102.22;;;18.83;48.93
30935;BME280;51033;42.648;23.292;2023-07-24T02:52:42;94112.03;;;18.92;48.99
30935;BME280;51033;42.648;23.292;2023-07-24T02:55:08;94120.44;;;18.90;48.09
30935;BME280;51033;42.648;23.292;2023-07-24T02:57:34;94071.47;;;18.65;47.37
30935;BME280;51033;42.648;23.292;2023-07-24T02:59:59;94101.94;;;18.88;47.97
30935;BME280;51033;42.648;23.292;2023-07-24T03:02:25;94105.47;;;18.93;47.71
30935;BME280;51033;42.648;23.292;2023-07-24T03:04:50;94099.63;;;18.87;47.79
30935;BME280;51033;42.648;23.292;2023-07-24T03:07:16;94073.56;;;18.72;47.48
30935;BME280;51033;42.648;23.292;2023-07-24T03:09:42;94101.09;;;18.84;47.74
30935;BME280;51033;42.648;23.292;2023-07-24T03:12:07;94083.25;;;18.76;47.96
30935;BME280;51033;42.648;23.292;2023-07-24T03:14:33;94107.31;;;18.88;47.61
30935;BME280;51033;42.648;23.292;2023-07-24T03:16:58;94095.56;;;18.77;47.69
30935;BME280;51033;42.648;23.292;2023-07-24T03:19:23;94094.88;;;18.80;47.91
30935;BME280;51033;42.648;23.292;2023-07-24T03:21:49;94098.34;;;18.81;47.80
30935;BME280;51033;42.648;23.292;2023-07-24T03:24:14;94100.22;;;18.77;47.81
30935;BME280;51033;42.648;23.292;2023-07-24T03:26:40;94100.91;;;18.74;47.80
30935;BME280;51033;42.648;23.292;2023-07-24T03:29:05;94112.53;;;18.78;47.78
30935;BME280;51033;42.648;23.292;2023-07-24T03:31:31;94100.84;;;18.70;48.23
30935;BME280;51033;42.648;23.292;2023-07-24T03:33:56;94112.94;;;18.80;48.98
30935;BME280;51033;42.648;23.292;2023-07-24T03:36:22;94116.28;;;18.73;49.82
30935;BME280;51033;42.648;23.292;2023-07-24T03:38:47;94117.69;;;18.67;49.88
30935;BME280;51033;42.648;23.292;2023-07-24T03:41:12;94105.59;;;18.58;50.46
30935;BME280;51033;42.648;23.292;2023-07-24T03:43:38;94104.03;;;18.57;50.72
30935;BME280;51033;42.648;23.292;2023-07-24T03:46:06;94090.34;;;18.46;50.61
30935;BME280;51033;42.648;23.292;2023-07-24T03:48:31;94105.22;;;18.59;49.85
30935;BME280;51033;42.648;23.292;2023-07-24T03:51:00;94115.69;;;18.64;49.79
30935;BME280;51033;42.648;23.292;2023-07-24T03:53:26;94092.81;;;18.55;49.68
30935;BME280;51033;42.648;23.292;2023-07-24T03:55:52;94111.88;;;18.65;49.73
30935;BME280;51033;42.648;23.292;2023-07-24T03:58:17;94105.78;;;18.68;50.28
30935;BME280;51033;42.648;23.292;2023-07-24T04:00:43;94093.16;;;18.53;50.41
30935;BME280;51033;42.648;23.292;2023-07-24T04:03:09;94094.19;;;18.45;50.82
30935;BME280;51033;42.648;23.292;2023-07-24T04:05:35;94107.56;;;18.61;51.31
30935;BME280;51033;42.648;23.292;2023-07-24T04:08:00;94080.31;;;18.43;52.25
30935;BME280;51033;42.648;23.292;2023-07-24T04:10:26;94119.69;;;18.70;53.24
30935;BME280;51033;42.648;23.292;2023-07-24T04:12:52;94137.19;;;18.80;54.06
30935;BME280;51033;42.648;23.292;2023-07-24T04:15:17;94124.28;;;18.70;55.39
30935;BME280;51033;42.648;23.292;2023-07-24T04:17:43;94126.19;;;18.69;55.64
30935;BME280;51033;42.648;23.292;2023-07-24T04:20:08;94138.38;;;18.82;57.21
30935;BME280;51033;42.648;23.292;2023-07-24T04:22:34;94129.63;;;18.85;55.81
30935;BME280;51033;42.648;23.292;2023-07-24T04:24:59;94124.75;;;18.95;56.60
30935;BME280;51033;42.648;23.292;2023-07-24T04:27:25;94098.69;;;18.79;56.56
30935;BME280;51033;42.648;23.292;2023-07-24T04:29:50;94120.66;;;19.01;57.01
30935;BME280;51033;42.648;23.292;2023-07-24T04:32:16;94128.53;;;19.13;57.53
30935;BME280;51033;42.648;23.292;2023-07-24T04:34:41;94127.94;;;19.23;56.81
30935;BME280;51033;42.648;23.292;2023-07-24T04:37:06;94119.03;;;19.19;57.06
30935;BME280;51033;42.648;23.292;2023-07-24T04:39:32;94124.31;;;19.35;57.04
30935;BME280;51033;42.648;23.292;2023-07-24T04:41:58;94108.81;;;19.31;56.42
30935;BME280;51033;42.648;23.292;2023-07-24T04:44:24;94119.22;;;19.52;56.34
30935;BME280;51033;42.648;23.292;2023-07-24T04:46:49;94130.94;;;19.63;56.26
30935;BME280;51033;42.648;23.292;2023-07-24T04:49:15;94113.97;;;19.63;55.51
30935;BME280;51033;42.648;23.292;2023-07-24T04:51:41;94120.97;;;19.67;55.48
30935;BME280;51033;42.648;23.292;2023-07-24T04:54:06;94120.63;;;19.69;54.87
30935;BME280;51033;42.648;23.292;2023-07-24T04:56:32;94124.13;;;19.69;54.92
30935;BME280;51033;42.648;23.292;2023-07-24T04:58:58;94131.94;;;19.78;54.79
30935;BME280;51033;42.648;23.292;2023-07-24T05:01:23;94139.78;;;19.87;54.80
30935;BME280;51033;42.648;23.292;2023-07-24T05:03:48;94142.28;;;19.99;54.52
30935;BME280;51033;42.648;23.292;2023-07-24T05:06:14;94130.63;;;19.95;53.83
30935;BME280;51033;42.648;23.292;2023-07-24T05:08:39;94138.56;;;20.10;54.34
30935;BME280;51033;42.648;23.292;2023-07-24T05:11:04;94139.78;;;20.13;54.00
30935;BME280;51033;42.648;23.292;2023-07-24T05:13:30;94137.13;;;20.16;53.65
30935;BME280;51033;42.648;23.292;2023-07-24T05:15:55;94134.53;;;20.24;52.83
30935;BME280;51033;42.648;23.292;2023-07-24T05:18:21;94134.16;;;20.25;53.21
30935;BME280;51033;42.648;23.292;2023-07-24T05:20:47;94125.03;;;20.33;53.69
30935;BME280;51033;42.648;23.292;2023-07-24T05:23:14;94121.69;;;20.43;52.77
30935;BME280;51033;42.648;23.292;2023-07-24T05:25:40;94130.59;;;20.47;52.32
30935;BME280;51033;42.648;23.292;2023-07-24T05:28:05;94132.66;;;20.57;53.38
30935;BME280;51033;42.648;23.292;2023-07-24T05:30:30;94136.28;;;20.72;52.97
30935;BME280;51033;42.648;23.292;2023-07-24T05:32:56;94125.84;;;20.71;51.98
30935;BME280;51033;42.648;23.292;2023-07-24T05:35:21;94115.47;;;20.76;51.83
30935;BME280;51033;42.648;23.292;2023-07-24T05:37:47;94122.66;;;20.95;52.73
30935;BME280;51033;42.648;23.292;2023-07-24T05:40:12;94121.22;;;21.08;52.30
30935;BME280;51033;42.648;23.292;2023-07-24T05:42:38;94108.47;;;21.05;51.78
30935;BME280;51033;42.648;23.292;2023-07-24T05:45:07;94116.38;;;21.24;51.71
30935;BME280;51033;42.648;23.292;2023-07-24T05:47:33;94110.63;;;21.29;50.74
30935;BME280;51033;42.648;23.292;2023-07-24T05:49:58;94114.66;;;21.50;51.06
30935;BME280;51033;42.648;23.292;2023-07-24T05:52:24;94107.34;;;21.54;49.62
30935;BME280;51033;42.648;23.292;2023-07-24T05:54:49;94113.69;;;21.72;49.69
30935;BME280;51033;42.648;23.292;2023-07-24T05:57:14;94105.97;;;21.74;49.54
30935;BME280;51033;42.648;23.292;2023-07-24T05:59:40;94103.34;;;21.84;49.25
30935;BME280;51033;42.648;23.292;2023-07-24T06:02:05;94087.88;;;21.85;47.95
30935;BME280;51033;42.648;23.292;2023-07-24T06:04:31;94095.66;;;21.97;48.71
30935;BME280;51033;42.648;23.292;2023-07-24T06:06:56;94105.78;;;22.07;47.53
30935;BME280;51033;42.648;23.292;2023-07-24T06:09:22;94085.25;;;21.99;47.51
30935;BME280;51033;42.648;23.292;2023-07-24T06:11:47;94110.44;;;22.10;47.91
30935;BME280;51033;42.648;23.292;2023-07-24T06:14:12;94087.19;;;21.99;47.44
30935;BME280;51033;42.648;23.292;2023-07-24T06:16:38;94101.13;;;22.04;47.39
30935;BME280;51033;42.648;23.292;2023-07-24T06:19:03;94089.53;;;22.04;47.56
30935;BME280;51033;42.648;23.292;2023-07-24T06:21:29;94095.75;;;22.11;46.60
30935;BME280;51033;42.648;23.292;2023-07-24T06:23:54;94091.47;;;22.07;46.83
30935;BME280;51033;42.648;23.292;2023-07-24T06:26:20;94091.47;;;22.10;46.58
30935;BME280;51033;42.648;23.292;2023-07-24T06:28:45;94106.28;;;22.23;46.60
30935;BME280;51033;42.648;23.292;2023-07-24T06:31:10;94087.34;;;22.27;46.74
30935;BME280;51033;42.648;23.292;2023-07-24T06:33:36;94085.00;;;22.25;45.19
30935;BME280;51033;42.648;23.292;2023-07-24T06:36:01;94105.16;;;22.35;45.39
30935;BME280;51033;42.648;23.292;2023-07-24T06:38:26;94095.91;;;22.40;45.40
30935;BME280;51033;42.648;23.292;2023-07-24T06:40:52;94111.00;;;22.41;44.99
30935;BME280;51033;42.648;23.292;2023-07-24T06:43:17;94099.81;;;22.46;43.92
30935;BME280;51033;42.648;23.292;2023-07-24T06:45:43;94090.13;;;22.45;44.67
30935;BME280;51033;42.648;23.292;2023-07-24T06:48:08;94089.00;;;22.63;45.29
30935;BME280;51033;42.648;23.292;2023-07-24T06:50:33;94101.44;;;22.75;44.49
30935;BME280;51033;42.648;23.292;2023-07-24T06:52:59;94101.44;;;22.75;43.68
30935;BME280;51033;42.648;23.292;2023-07-24T06:55:24;94098.38;;;22.84;44.76
30935;BME280;51033;42.648;23.292;2023-07-24T06:57:49;94106.94;;;22.89;45.02
30935;BME280;51033;42.648;23.292;2023-07-24T07:00:15;94102.31;;;23.00;45.58
30935;BME280;51033;42.648;23.292;2023-07-24T07:02:40;94087.56;;;22.94;44.23
30935;BME280;51033;42.648;23.292;2023-07-24T07:05:06;94084.50;;;23.10;45.48
30935;BME280;51033;42.648;23.292;2023-07-24T07:07:32;94106.22;;;23.21;45.11
30935;BME280;51033;42.648;23.292;2023-07-24T07:09:57;94112.44;;;23.39;44.66
30935;BME280;51033;42.648;23.292;2023-07-24T07:12:22;94110.94;;;23.55;44.22
30935;BME280;51033;42.648;23.292;2023-07-24T07:14:48;94112.47;;;23.64;44.21
30935;BME280;51033;42.648;23.292;2023-07-24T07:17:13;94102.41;;;23.64;43.71
30935;BME280;51033;42.648;23.292;2023-07-24T07:19:39;94110.13;;;23.62;43.28
30935;BME280;51033;42.648;23.292;2023-07-24T07:22:04;94097.34;;;23.63;43.06
30935;BME280;51033;42.648;23.292;2023-07-24T07:24:30;94097.72;;;23.68;42.88
30935;BME280;51033;42.648;23.292;2023-07-24T07:26:55;94084.53;;;23.67;43.57
30935;BME280;51033;42.648;23.292;2023-07-24T07:29:21;94093.06;;;23.72;44.66
30935;BME280;51033;42.648;23.292;2023-07-24T07:31:46;94076.81;;;23.65;44.92
30935;BME280;51033;42.648;23.292;2023-07-24T07:34:12;94084.13;;;23.82;45.88
30935;BME280;51033;42.648;23.292;2023-07-24T07:36:37;94090.31;;;23.97;44.19
30935;BME280;51033;42.648;23.292;2023-07-24T07:39:02;94080.22;;;23.97;44.77
30935;BME280;51033;42.648;23.292;2023-07-24T07:41:28;94084.09;;;24.04;44.88
30935;BME280;51033;42.648;23.292;2023-07-24T07:43:54;94080.59;;;24.07;42.71
30935;BME280;51033;42.648;23.292;2023-07-24T07:46:19;94079.81;;;24.06;42.84
30935;BME280;51033;42.648;23.292;2023-07-24T07:48:45;94089.91;;;24.09;43.02
30935;BME280;51033;42.648;23.292;2023-07-24T07:51:12;94086.03;;;23.96;42.82
30935;BME280;51033;42.648;23.292;2023-07-24T07:53:37;94074.06;;;23.79;42.63
30935;BME280;51033;42.648;23.292;2023-07-24T07:56:03;94079.88;;;23.85;42.94
30935;BME280;51033;42.648;23.292;2023-07-24T07:58:29;94082.19;;;23.90;43.80
30935;BME280;51033;42.648;23.292;2023-07-24T08:00:55;94090.69;;;23.95;43.36
30935;BME280;51033;42.648;23.292;2023-07-24T08:03:20;94085.28;;;23.92;43.14
30935;BME280;51033;42.648;23.292;2023-07-24T08:05:46;94077.91;;;23.92;43.29
30935;BME280;51033;42.648;23.292;2023-07-24T08:08:11;94088.78;;;23.99;43.28
30935;BME280;51033;42.648;23.292;2023-07-24T08:10:38;94069.75;;;23.99;44.51
30935;BME280;51033;42.648;23.292;2023-07-24T08:13:03;94082.56;;;24.13;42.99
30935;BME280;51033;42.648;23.292;2023-07-24T08:15:29;94042.59;;;23.92;44.49
30935;BME280;51033;42.648;23.292;2023-07-24T08:17:54;94081.72;;;24.30;43.83
30935;BME280;51033;42.648;23.292;2023-07-24T08:20:20;94076.28;;;24.34;43.86
30935;BME280;51033;42.648;23.292;2023-07-24T08:22:45;94066.94;;;24.38;42.53
30935;BME280;51033;42.648;23.292;2023-07-24T08:25:11;94070.75;;;24.52;42.66
30935;BME280;51033;42.648;23.292;2023-07-24T08:27:37;94051.75;;;24.44;43.26
30935;BME280;51033;42.648;23.292;2023-07-24T08:30:02;94064.50;;;24.62;42.81
30935;BME280;51033;42.648;23.292;2023-07-24T08:32:28;94062.56;;;24.62;42.87
30935;BME280;51033;42.648;23.292;2023-07-24T08:34:53;94060.94;;;24.75;42.39
30935;BME280;51033;42.648;23.292;2023-07-24T08:37:19;94049.31;;;24.71;42.41
30935;BME280;51033;42.648;23.292;2023-07-24T08:39:44;94056.25;;;24.83;42.07
30935;BME280;51033;42.648;23.292;2023-07-24T08:42:13;94042.25;;;24.84;42.37
30935;BME280;51033;42.648;23.292;2023-07-24T08:44:41;94038.75;;;24.84;42.01
30935;BME280;51033;42.648;23.292;2023-07-24T08:47:10;94040.66;;;24.91;42.58
30935;BME280;51033;42.648;23.292;2023-07-24T08:49:38;94056.88;;;25.05;42.65
30935;BME280;51033;42.648;23.292;2023-07-24T08:52:07;94053.81;;;25.03;41.30
30935;BME280;51033;42.648;23.292;2023-07-24T08:54:35;94058.38;;;25.13;41.03
30935;BME280;51033;42.648;23.292;2023-07-24T08:57:02;94057.66;;;25.05;41.15
30935;BME280;51033;42.648;23.292;2023-07-24T08:59:28;94038.97;;;25.11;40.06
30935;BME280;51033;42.648;23.292;2023-07-24T09:01:55;94049.78;;;25.18;40.75
30935;BME280;51033;42.648;23.292;2023-07-24T09:04:21;94051.31;;;25.26;41.20
30935;BME280;51033;42.648;23.292;2023-07-24T09:06:48;94046.25;;;25.24;41.01
30935;BME280;51033;42.648;23.292;2023-07-24T09:09:14;94045.81;;;25.33;40.09
30935;BME280;51033;42.648;23.292;2023-07-24T09:11:48;94038.84;;;25.32;39.56
30935;BME280;51033;42.648;23.292;2023-07-24T09:14:25;94045.03;;;25.36;40.98
30935;BME280;51033;42.648;23.292;2023-07-24T09:17:08;94037.22;;;25.38;40.66
30935;BME280;51033;42.648;23.292;2023-07-24T09:19:34;94034.44;;;25.45;40.16
30935;BME280;51033;42.648;23.292;2023-07-24T09:22:14;94026.25;;;25.49;39.73
30935;BME280;51033;42.648;23.292;2023-07-24T09:24:51;94030.03;;;25.58;39.48
30935;BME280;51033;42.648;23.292;2023-07-24T09:27:17;94024.97;;;25.60;40.55
30935;BME280;51033;42.648;23.292;2023-07-24T09:29:43;94019.53;;;25.60;40.44
30935;BME280;51033;42.648;23.292;2023-07-24T09:32:25;94018.31;;;25.65;40.58
30935;BME280;51033;42.648;23.292;2023-07-24T09:34:51;94005.19;;;25.56;39.50
30935;BME280;51033;42.648;23.292;2023-07-24T09:39:48;94013.41;;;25.87;40.21
30935;BME280;51033;42.648;23.292;2023-07-24T09:42:13;93990.09;;;25.86;40.96
30935;BME280;51033;42.648;23.292;2023-07-24T09:44:38;93988.41;;;25.99;40.44
30935;BME280;51033;42.648;23.292;2023-07-24T09:47:04;93999.88;;;26.17;39.99
30935;BME280;51033;42.648;23.292;2023-07-24T09:49:30;93991.22;;;26.22;40.12
30935;BME280;51033;42.648;23.292;2023-07-24T09:51:57;93986.00;;;26.04;37.77
30935;BME280;51033;42.648;23.292;2023-07-24T09:54:31;93977.25;;;26.20;37.33
30935;BME280;51033;42.648;23.292;2023-07-24T09:56:58;93988.75;;;26.35;38.00
30935;BME280;51033;42.648;23.292;2023-07-24T09:59:26;93989.41;;;26.42;38.82
30935;BME280;51033;42.648;23.292;2023-07-24T10:01:52;93973.56;;;26.34;35.74
30935;BME280;51033;42.648;23.292;2023-07-24T10:04:18;93967.56;;;26.46;35.51
30935;BME280;51033;42.648;23.292;2023-07-24T10:06:44;93976.59;;;26.70;34.98
30935;BME280;51033;42.648;23.292;2023-07-24T10:09:12;93974.50;;;26.81;36.13
30935;BME280;51033;42.648;23.292;2023-07-24T10:11:37;93969.50;;;26.76;34.63
30935;BME280;51033;42.648;23.292;2023-07-24T10:14:03;93972.53;;;26.81;34.99
30935;BME280;51033;42.648;23.292;2023-07-24T10:16:29;93965.00;;;26.89;34.79
30935;BME280;51033;42.648;23.292;2023-07-24T10:18:54;93966.97;;;26.88;35.01
30935;BME280;51033;42.648;23.292;2023-07-24T10:21:26;93963.81;;;26.90;36.32
30935;BME280;51033;42.648;23.292;2023-07-24T10:23:52;93937.69;;;26.92;34.87
30935;BME280;51033;42.648;23.292;2023-07-24T10:26:24;93959.38;;;27.03;36.95
30935;BME280;51033;42.648;23.292;2023-07-24T10:28:50;93954.16;;;27.12;34.45
30935;BME280;51033;42.648;23.292;2023-07-24T10:31:23;93941.06;;;27.23;35.40
30935;BME280;51033;42.648;23.292;2023-07-24T10:33:50;93932.34;;;27.09;35.38
30935;BME280;51033;42.648;23.292;2023-07-24T10:36:18;93952.91;;;27.17;35.30
30935;BME280;51033;42.648;23.292;2023-07-24T10:38:45;93944.41;;;27.11;35.70
30935;BME280;51033;42.648;23.292;2023-07-24T10:41:11;93958.53;;;27.29;35.87
30935;BME280;51033;42.648;23.292;2023-07-24T10:43:48;93938.09;;;27.37;35.48
30935;BME280;51033;42.648;23.292;2023-07-24T10:46:14;93942.84;;;27.33;35.41
30935;BME280;51033;42.648;23.292;2023-07-24T10:48:47;93938.81;;;27.42;35.18
30935;BME280;51033;42.648;23.292;2023-07-24T10:51:13;93930.97;;;27.44;34.81
30935;BME280;51033;42.648;23.292;2023-07-24T10:53:43;93924.31;;;27.45;35.90
30935;BME280;51033;42.648;23.292;2023-07-24T10:56:09;93932.97;;;27.63;34.82
30935;BME280;51033;42.648;23.292;2023-07-24T10:58:34;93898.78;;;27.55;36.57
30935;BME280;51033;42.648;23.292;2023-07-24T11:01:03;93928.19;;;27.90;34.04
30935;BME280;51033;42.648;23.292;2023-07-24T11:03:30;93934.78;;;28.12;34.18
30935;BME280;51033;42.648;23.292;2023-07-24T11:05:57;93923.75;;;28.16;33.21
30935;BME280;51033;42.648;23.292;2023-07-24T11:08:23;93916.69;;;28.18;34.65
30935;BME280;51033;42.648;23.292;2023-07-24T11:10:55;93914.63;;;28.22;34.73
30935;BME280;51033;42.648;23.292;2023-07-24T11:13:26;93903.88;;;28.15;34.00
30935;BME280;51033;42.648;23.292;2023-07-24T11:15:53;93918.34;;;28.32;36.05
30935;BME280;51033;42.648;23.292;2023-07-24T11:18:20;93909.63;;;28.37;33.18
30935;BME280;51033;42.648;23.292;2023-07-24T11:20:50;93905.63;;;28.42;34.32
30935;BME280;51033;42.648;23.292;2023-07-24T11:23:16;93896.13;;;28.46;33.84
30935;BME280;51033;42.648;23.292;2023-07-24T11:25:43;93889.81;;;28.49;34.26
30935;BME280;51033;42.648;23.292;2023-07-24T11:28:10;93895.78;;;28.64;32.84
30935;BME280;51033;42.648;23.292;2023-07-24T11:30:36;93886.59;;;28.54;33.84
30935;BME280;51033;42.648;23.292;2023-07-24T11:33:03;93896.00;;;28.70;33.23
30935;BME280;51033;42.648;23.292;2023-07-24T11:35:29;93882.59;;;28.75;33.27
30935;BME280;51033;42.648;23.292;2023-07-24T11:37:55;93891.84;;;28.81;32.63
30935;BME280;51033;42.648;23.292;2023-07-24T11:40:21;93873.88;;;28.80;32.24
30935;BME280;51033;42.648;23.292;2023-07-24T11:42:48;93883.47;;;28.88;32.15
30935;BME280;51033;42.648;23.292;2023-07-24T11:45:14;93882.50;;;28.95;33.36
30935;BME280;51033;42.648;23.292;2023-07-24T11:47:48;93855.84;;;28.83;33.02
30935;BME280;51033;42.648;23.292;2023-07-24T11:50:15;93885.22;;;29.11;31.86
30935;BME280;51033;42.648;23.292;2023-07-24T11:52:43;93872.84;;;29.06;31.60
30935;BME280;51033;42.648;23.292;2023-07-24T11:55:10;93884.03;;;29.12;32.33
30935;BME280;51033;42.648;23.292;2023-07-24T11:57:36;93869.84;;;29.17;32.56
30935;BME280;51033;42.648;23.292;2023-07-24T12:00:03;93884.81;;;29.13;32.83
30935;BME280;51033;42.648;23.292;2023-07-24T12:02:29;93858.44;;;29.19;32.45
30935;BME280;51033;42.648;23.292;2023-07-24T12:04:58;93873.06;;;29.28;33.44
30935;BME280;51033;42.648;23.292;2023-07-24T12:07:32;93865.09;;;29.34;31.13
30935;BME280;51033;42.648;23.292;2023-07-24T12:09:58;93852.44;;;29.24;29.61
30935;BME280;51033;42.648;23.292;2023-07-24T12:12:24;93872.00;;;29.38;29.94
30935;BME280;51033;42.648;23.292;2023-07-24T12:14:49;93859.31;;;29.16;30.78
30935;BME280;51033;42.648;23.292;2023-07-24T12:17:18;93862.66;;;29.23;31.22
30935;BME280;51033;42.648;23.292;2023-07-24T12:19:45;93860.50;;;29.31;32.10
30935;BME280;51033;42.648;23.292;2023-07-24T12:22:10;93831.75;;;29.23;30.77
30935;BME280;51033;42.648;23.292;2023-07-24T12:24:36;93867.00;;;29.37;31.06
30935;BME280;51033;42.648;23.292;2023-07-24T12:27:01;93858.63;;;29.57;31.30
30935;BME280;51033;42.648;23.292;2023-07-24T12:29:26;93851.91;;;29.58;31.94
30935;BME280;51033;42.648;23.292;2023-07-24T12:31:52;93861.78;;;29.71;30.72
30935;BME280;51033;42.648;23.292;2023-07-24T12:34:17;93856.19;;;29.75;30.61
30935;BME280;51033;42.648;23.292;2023-07-24T12:36:43;93840.69;;;29.68;31.94
30935;BME280;51033;42.648;23.292;2023-07-24T12:39:08;93841.94;;;29.80;30.73
30935;BME280;51033;42.648;23.292;2023-07-24T12:41:34;93837.13;;;29.84;30.63
30935;BME280;51033;42.648;23.292;2023-07-24T12:43:59;93834.59;;;29.89;30.07
30935;BME280;51033;42.648;23.292;2023-07-24T12:46:24;93835.38;;;29.90;30.39
30935;BME280;51033;42.648;23.292;2023-07-24T12:48:50;93841.75;;;30.00;29.57
30935;BME280;51033;42.648;23.292;2023-07-24T12:51:15;93839.88;;;29.97;29.35